Tiempo atmosférico en la estación meteorológica de Madridejos, Toledo (690 m.)



Fecha
DESCASC
Temp. máxima en grados centígrados (hora)
DESCASC
Temp. mínima en grados centígrados (hora)
DESCASC
Temp. media en grados centígrados
DESCASC
Racha de viento máxima en m/sg (hora)
DESCASC
Velocidad máxima media en intervalos de 10 minutos(hora)
DESCASC
Precipitaciones diarias en mm
DESCASC
Precipitaciones de 00:00 a 06:00 en mm
DESCASC
Precipitaciones de 06:00 a 12:00 en mm
DESCASC
Precipitaciones de 12:00 a 18:00 en mm
DESCASC
Precipitaciones de 18:00 a 24:00 en mm
DESCASC
13-10-2019 27.1 (17:00) 12.2 (08:40) 19.7 11.11 (15:40) 5.83 (18:30) 0 0 0 0 0
12-10-2019 27.1 (16:20) 15.2 (09:20) 21.2 13.89 (21:40) 6.67 (21:40) 0.2 0 0 0 0.2
10-10-2019 28.7 (18:30) 11.7 (00:00) 20.2 9.72 (19:30) 5.28 (19:20) 0 0 0 0 0
09-10-2019 29.2 (17:00) 12.8 (00:00) 21 6.39 (23:40) 3.33 (11:00) 0 0 0 0 0
08-10-2019 30.7 (17:10) 12.1 (00:00) 21.4 6.67 (12:50) 3.33 (00:30) 0 0 0 0 0
07-10-2019 27.5 (18:00) 12.2 (00:00) 19.8 8.89 (00:20) 5.28 (01:40) 0 0 0 0 0
06-10-2019 29.1 (17:00) 11.7 (00:00) 20.4 8.33 (23:59) 4.72 (03:20) 0 0 0 0 0
05-10-2019 28.2 (18:10) 11.1 (08:10) 19.7 9.17 (15:30) 4.72 (00:30) 0 0 0 0 0
04-10-2019 29.4 (16:40) 10.1 (00:00) 19.8 8.06 (22:30) 4.44 (23:59) 0 0 0 0 0
03-10-2019 26.3 (18:00) 8.5 (00:00) 17.4 8.89 (15:40) 3.89 (13:40) 0 0 0 0 0
02-10-2019 23.4 (17:30) 10.3 (00:00) 16.8 10.83 (18:10) 5.56 (00:30) 0 0 0 0 0
01-10-2019 27.8 (14:40) 13.4 (00:00) 20.6 12.22 (16:40) 7.22 (18:10) 0 0 0 0 0
30-09-2019 31.2 (16:40) 12.5 (00:00) 21.9 7.22 (17:10) 3.89 (02:20) 0 0 0 0 0
29-09-2019 30.4 (15:30) 11.6 (00:00) 21 7.5 (03:20) 3.61 (17:10) 0 0 0 0 0
28-09-2019 30.3 (18:00) 11.3 (00:00) 20.8 6.67 (22:30) 4.17 (00:40) 0 0 0 0 0
27-09-2019 29.3 (17:00) 13.2 (00:00) 21.2 8.89 (18:10) 3.61 (17:00) 0 0 0 0 0
26-09-2019 28.6 (17:40) 12.6 (00:00) 20.6 7.78 (13:30) 3.61 (13:30) 0 0 0 0 0
25-09-2019 24.8 (18:10) 14.6 (00:00) 19.7 8.61 (18:30) 5.28 (05:00) 0 0 0 0 0
24-09-2019 29 (17:20) 11.4 (00:00) 20.2 10.83 (16:20) 6.11 (20:00) 0 0 0 0 0
23-09-2019 24.6 (17:30) 9.8 (00:00) 17.2 6.39 (21:20) 2.78 (12:10) 0 0 0 0 0
22-09-2019 23.4 (17:40) 14.8 (00:00) 19.1 12.78 (07:50) 6.11 (13:00) 0 0 0 0 0
21-09-2019 22.8 (17:20) 15.5 (00:00) 19.1 9.72 (19:50) 5.28 (19:40) 0.4 0.2 0 0.2 0
20-09-2019 25 (17:00) 16.2 (00:00) 20.6 13.61 (19:50) 6.94 (19:40) 3.2 0 0 0 3.2
19-09-2019 27.5 (18:30) 15.5 (00:00) 21.5 8.89 (15:40) 3.89 (05:20) 0.8 0 0 0.8 0
18-09-2019 26.7 (17:30) 12.8 (00:00) 19.8 10 (01:20) 5.56 (01:20) 0 0 0 0 0
17-09-2019 27.9 (16:30) 15.7 (00:00) 21.8 11.39 (19:00) 5.83 (19:00) 0 0 0 0 0
16-09-2019 24.9 (16:00) 17.8 (00:00) 21.3 8.61 (17:20) 3.61 (17:40) 0 0 0 0 0

Gráficas

Temp. máximas Temp. mínimas Temp. medias Precipitaciones Rachas de viento máximas Velocidades máximas media en intervalos de 10 minutos

Datos horarios

Fecha y hora oficial Temperatura (ºC) Velocidad del viento (km/h) Dirección del viento Racha (km/h) Dirección de racha Precipitación (mm) Presión (hPa) Tendencia (hPa) Humedad (%)
2019-10-15 23:00:00 10.1 5 Oeste 12 Norte 0 941.4 1.4 61
2019-10-15 22:00:00 10.7 6 Oeste 20 Noroeste 0 940.9 1.2 55
2019-10-15 21:00:00 13 10 Noroeste 19 Noroeste 0 940.4 0.8 45
2019-10-15 20:00:00 15.3 6 Sudoeste 21 Sur 0 940 0.2 36
2019-10-15 19:00:00 17 13 Sudoeste 24 Sudoeste 0 939.7 -0.3 32
2019-10-15 18:00:00 17.6 8 Sudoeste 23 Oeste 0 939.6 -1 32
2019-10-15 17:00:00 17.7 11 Sudoeste 34 Sur 0 939.8 -1.4 30
2019-10-15 16:00:00 17.2 12 Oeste 28 Sudoeste 0 940 -1.7 34
2019-10-15 15:00:00 16.1 12 Sudoeste 33 Sur 0 940.6 -1.1 38
2019-10-15 14:00:00 14.4 8 Oeste 18 Sudoeste 0 941.2 -0.3 44
2019-10-15 13:00:00 13.1 6 Este 19 Nordeste 0 941.7 0.8 50
2019-10-15 12:00:00 12 5 Norte 23 Sudoeste 0 941.7 1.6 56
2019-10-15 11:00:00 10 8 Sudoeste 23 Sudoeste 0 941.5 1.6 73
2019-10-15 10:00:00 6.9 8 Sudoeste 21 Sudoeste 0 940.9 1.5 87
2019-10-15 09:00:00 5 7 Sur 20 Sudoeste 0 940.1 0.9 86
2019-10-15 08:00:00 4.8 4 Oeste 21 Oeste 0 939.9 0.8 86
2019-10-15 07:00:00 5.3 5 Oeste 11 Oeste 0 939.4 0.5 85
2019-10-15 06:00:00 6 7 Oeste 19 Sudoeste 0 939.2 0.4 86
2019-10-15 05:00:00 7 8 Sudoeste 21 Sudoeste 0 939.1 0.6 87
2019-10-15 04:00:00 7.5 8 Oeste 21 Oeste 0 938.9 1 87
2019-10-15 03:00:00 8.2 15 Oeste 27 Oeste 0 938.8 1.2 86
2019-10-15 02:00:00 8.5 11 Oeste 28 Oeste 0 938.5 1.4 84
2019-10-15 01:00:00 9 11 Oeste 31 Oeste 0 937.9 1.3 85
2019-10-15 00:00:00 10.1 12 Oeste 31 Oeste 0 937.6 1 82
2019-10-14 23:00:00 10.7 14 Oeste 32 Oeste 0 937.1 1.2 82
2019-10-14 22:00:00 11.8 19 Oeste 33 Sudoeste 0.6 936.6 2.2 75
2019-10-14 21:00:00 12 13 Oeste 39 Oeste 0.2 936.6 2.8 85
2019-10-14 20:00:00 12.4 29 Oeste 58 Noroeste 0 935.9 2.5 80
2019-10-14 19:00:00 18.5 21 Oeste 46 Oeste 0 934.4 1 38
2019-10-14 18:00:00 20.4 23 Sudoeste 49 Oeste 0 933.8 0.1 34
2019-10-14 17:00:00 20.6 22 Sudoeste 48 Sudoeste 0 933.4 -0.8 39
2019-10-14 16:00:00 19.4 23 Oeste 47 Oeste 0 933.4 -0.9 46
2019-10-14 15:00:00 19.9 32 Oeste 49 Sudoeste 0.2 933.7 -0.9 49
2019-10-14 14:00:00 18.5 30 Sudoeste 57 Sudoeste 1 934.2 -0.2 67
2019-10-14 13:00:00 19.5 26 Sudoeste 54 Sudoeste 0 934.3 0.5 54
2019-10-14 12:00:00 18.6 26 Sudoeste 52 Sudoeste 0 934.6 1.3 58
2019-10-14 11:00:00 18.6 25 Sudoeste 50 Sur 0 934.4 1.9 61
2019-10-14 10:00:00 18 21 Sudoeste 50 Sudoeste 0 933.8 2.1 65
2019-10-14 09:00:00 18.6 31 Sudoeste 52 Sudoeste 0 933.3 1.3 60
2019-10-14 08:00:00 17 9 Sudeste 23 Sudeste 0 932.5 0.8 48
2019-10-14 07:00:00 17.5 9 Sudeste 24 Sudeste 0 931.7 -0.6 46
2019-10-14 06:00:00 17.3 15 Sudeste 29 Sudeste 0 932 -1.1 46
2019-10-14 05:00:00 17.2 16 Sudeste 26 Este 0 931.7 -1.9 45
2019-10-14 04:00:00 16.1 9 Sudeste 20 Este 0 932.3 -2.1 49
2019-10-14 03:00:00 16.7 5 Sur 23 Sudeste 0 933.1 -1.6 46
2019-10-14 02:00:00 16.5 8 Este 20 Sudoeste 0 933.6 -1.4 46
2019-10-14 01:00:00 17.6 12 Sudeste 24 Este 0 934.4 -0.7 43
2019-10-14 00:00:00 18.6 5 Sur 10 Sudeste 0 934.7 -0.3 42
2019-10-13 23:00:00 20.6 7 Sur 22 Sudoeste 0 935 0.2 36
2019-10-13 22:00:00 20.2 5 Sur 24 Sur 0 935.1 0.3 38
2019-10-13 21:00:00 22.6 6 Sudoeste 15 Sudoeste 0 935 0.1 31
2019-10-13 20:00:00 24.3 9 Sudoeste 31 Sudoeste 0 934.8 -0.4 27
2019-10-13 19:00:00 26 18 Sudoeste 39 Sudoeste 0 934.8 -0.8 24
2019-10-13 18:00:00 26.8 13 Sudoeste 37 Sudoeste 0 934.9 -1.2 24
2019-10-13 17:00:00 26.9 15 Sudoeste 34 Sur 0 935.2 -1.6 23
2019-10-13 16:00:00 26.3 18 Sur 40 Sur 0 935.6 -1.9 29
2019-10-13 15:00:00 25.5 7 Sudoeste 30 Sur 0 936.1 -1.6 34
2019-10-13 14:00:00 24.2 5 Sudeste 26 Este 0 936.8 -0.8 42
2019-10-13 13:00:00 22 9 Sudeste 26 Sudeste 0 937.5 0.3 56
2019-10-13 12:00:00 20 8 Oeste 26 Sudoeste 0 937.7 1.1 66
2019-10-13 11:00:00 17.7 10 Sudoeste 17 Sudoeste 0 937.6 1.1 73
2019-10-13 10:00:00 15 2 Sur 15 Sur 0 937.2 1.5 85
2019-10-13 09:00:00 12.7 4 Sudeste 13 Sur 0 936.6 0.8 90
2019-10-13 08:00:00 12.7 4 Sudoeste 15 Sur 0 936.5 0.5 89
2019-10-13 07:00:00 13.3 6 Sudeste 18 Sur 0 935.7 -0.6 89
2019-10-13 06:00:00 14.2 5 Sudeste 15 Sur 0 935.8 -0.9 89
2019-10-13 05:00:00 15 4 Sudeste 15 Sur 0 936 -0.9 88
2019-10-13 04:00:00 15.4 9 Este 20 Este 0 936.3 -1.1 88
2019-10-13 03:00:00 16.1 9 Este 16 Este 0 936.7 -0.3 86
2019-10-13 02:00:00 16.9 12 Este 22 Nordeste 0 936.9 0 83
2019-10-13 01:00:00 18.1 12 Nordeste 28 Oeste 0 937.4 0.2 78
2019-10-13 00:00:00 18.4 14 Este 28 Este 0 937 1 76
2019-10-12 23:00:00 19.5 18 Este 31 Este 0 936.9 1.5 65
2019-10-12 22:00:00 22.6 8 Sudeste 50 Sudeste 0.2 937.2 1.7 47
2019-10-12 21:00:00 22 15 Sudeste 30 Este 0 936 0.3 42
2019-10-12 20:00:00 23.5 9 Sudeste 34 Este 0 935.4 -0.8 38
2019-10-12 19:00:00 25.2 16 Este 35 Este 0 935.5 -1.1 33
2019-10-12 18:00:00 26.7 16 Este 28 Sudeste 0 935.7 -1.6 31
2019-10-12 17:00:00 26.3 11 Sudeste 30 Sudeste 0 936.2 -1.8 33
2019-10-12 16:00:00 26.4 11 Sudeste 32 Este 0 936.6 -1.8 33
2019-10-12 15:00:00 25.6 13 Sudeste 33 Este 0 937.3 -1.2 40
2019-10-12 14:00:00 22.5 14 Sudeste 32 Sudeste 0 938 -0.5 52
2019-10-12 13:00:00 20.9 17 Sudeste 30 Sudeste 0 938.4 0.3 59
2019-10-12 12:00:00 19.8 14 Sudeste 25 Este 0 938.5 0.7 65
2019-10-12 11:00:00 18.4 13 Este 25 Sudeste 0 938.5 0.9 71
2019-10-12 10:00:00 17 11 Este 22 Este 0 938.1 0.3 77
2019-10-12 09:00:00 15.3 7 Sudeste 20 Sudeste 0 937.8 0.3 82
2019-10-12 08:00:00 15.7 11 Sudeste 28 Sudeste 0 937.6 -0.3 79
2019-10-12 07:00:00 15.5 10 Sudeste 21 Sudeste 0 937.8 -0.2 76
2019-10-12 06:00:00 15.9 9 Este 23 Este 0 937.5 -0.9 73
2019-10-12 05:00:00 16.9 10 Este 23 Este 0 937.9 -0.6 67
2019-10-12 04:00:00 17.2 10 Este 20 Este 0 938 -0.5 64
2019-10-12 03:00:00 18.1 8 Este 21 Este 0 938.4 0 60
2019-10-12 02:00:00 19.7 4 Sudeste 18 Este 0 938.5 0.2 52
2019-10-12 01:00:00 20.7 6 Sudeste 24 Sur 0 938.5 0.4 49
2019-10-12 00:00:00 21.6 9 Sudeste 27 Este 0 938.4 0.6 47
2019-10-11 23:00:00 22.6 7 Sudeste 30 Este 0 938.3 0.6 42
2019-10-11 22:00:00 23.7 2 Sudeste 9 Sudeste 0 938.1 0.4 41
2019-10-11 21:00:00 24 2 Sur 5 Sudoeste 0 937.8 0 40
2019-10-11 20:00:00 25.2 0 Calma 13 Sudoeste 0 937.7 -0.5 37
2019-10-11 19:00:00 26.5 7 Sudoeste 23 Sudeste 0 937.7 -0.8 31
2019-10-11 18:00:00 26.8 8 Sudeste 32 Este 0 937.8 -1.7 35
2019-10-11 17:00:00 27.7 6 Sudeste 16 Sudeste 0 938.2 -2.3 34
2019-10-11 16:00:00 27 5 Sudeste 19 Este 0 938.5 -2.6 36
2019-10-11 15:00:00 25.7 4 Sudeste 14 Este 0 939.5 -1.9 43
2019-10-11 14:00:00 24.3 5 Sudeste 26 Este 0 940.5 -1 48
2019-10-11 13:00:00 22.2 13 Sudeste 29 Sudeste 0 941.1 0.1 55
2019-10-11 12:00:00 20 17 Sudeste 29 Sudeste 0 941.4 1.1 65
2019-10-11 11:00:00 18.3 14 Sudeste 26 Sudeste 0 941.5 1.4 74
2019-10-11 10:00:00 16.2 5 Sudeste 14 Sudeste 0 941 1 83
2019-10-11 09:00:00 14.5 3 Sudeste 14 Sur 0 940.3 0.3 88
2019-10-11 08:00:00 14.5 3 Sudeste 13 Sur 0 940.1 0.1 88
2019-10-11 07:00:00 14.3 0 Calma 13 Sur 0 940 -0.2 86
2019-10-11 06:00:00 15 6 Sudeste 17 Este 0 940 -0.1 85
2019-10-11 05:00:00 15.4 9 Sur 17 Este 0 940 -0.3 84
2019-10-11 04:00:00 15.7 7 Este 20 Este 0 940.2 -0.1 82
2019-10-11 03:00:00 16.2 10 Este 21 Este 0 940.1 0 80
2019-10-11 02:00:00 17.2 10 Este 21 Este 0 940.3 0.6 75
2019-10-11 01:00:00 17.9 10 Este 24 Este 0 940.3 1 70
2019-10-11 00:00:00 19.2 11 Este 24 Este 0 940.1 1.1 65
2019-10-10 23:00:00 20 10 Este 26 Este 0 939.7 1.2 61
2019-10-10 22:00:00 21.8 8 Sudeste 30 Este 0 939.3 1.1 54
2019-10-10 21:00:00 23.4 8 Sudeste 33 Este 0 939 0.8 48
2019-10-10 20:00:00 25.4 15 Este 35 Este 0 938.5 0.1 43
2019-10-10 19:00:00 27.6 14 Este 25 Este 0 938.2 -0.6 36
2019-10-10 18:00:00 28.1 9 Este 19 Este 0 938.2 -1.2 32
2019-10-10 17:00:00 28.4 3 Sudeste 17 Este 0 938.4 -1.6 33
2019-10-10 16:00:00 27.3 5 Nordeste 19 Nordeste 0 938.8 -1.5 36
2019-10-10 15:00:00 26.3 4 Sur 19 Este 0 939.4 -1.1 41
2019-10-10 14:00:00 24.9 8 Sudeste 28 Este 0 940 -0.4 47
2019-10-10 13:00:00 23 12 Este 29 Sudeste 0 940.3 0.3 56
2019-10-10 12:00:00 21 13 Este 27 Sudeste 0 940.5 1.3 65
2019-10-10 11:00:00 19.2 14 Este 23 Este 0 940.4 1.4 73
2019-10-10 10:00:00 15.2 2 Este 15 Norte 0 940 1.1 89
2019-10-10 09:00:00 11.8 5 Noroeste 21 Norte 0 939.2 0.7 89
2019-10-10 08:00:00 12.7 4 Noroeste 16 Oeste 0 939 0.4 85
2019-10-10 07:00:00 14.3 7 Sudoeste 16 Este 0 938.9 0.2 83
2019-10-10 06:00:00 16.1 6 Sur 21 Este 0 938.5 -0.4 84
2019-10-10 05:00:00 16.1 10 Sudeste 22 Este 0 938.6 0.3 83
2019-10-10 04:00:00 16.1 11 Este 23 Este 0 938.7 0.5 79
2019-10-10 03:00:00 16.5 8 Nordeste 27 Nordeste 0 938.9 0.8 63
2019-10-10 02:00:00 16.8 4 Oeste 24 Oeste 0 938.3 0.7 61
2019-10-10 01:00:00 17.3 13 Oeste 24 Oeste 0 938.2 1.1 59
2019-10-10 00:00:00 18.6 6 Oeste 23 Oeste 0 938.1 1.5 56
2019-10-09 23:00:00 19.5 7 Sudoeste 10 Oeste 0 937.6 1.4 52
2019-10-09 22:00:00 22.2 4 Norte 14 Noroeste 0 937.1 1.3 43
2019-10-09 21:00:00 24 6 Norte 16 Noroeste 0 936.6 0.6 39
2019-10-09 20:00:00 26.4 9 Norte 17 Norte 0 936.2 -0.1 33
2019-10-09 19:00:00 28.3 5 Este 15 Este 0 935.8 -0.9 29
2019-10-09 18:00:00 28.8 8 Nordeste 17 Nordeste 0 936 -1.1 28
2019-10-09 17:00:00 28.9 6 Norte 17 Este 0 936.3 -1.3 28
2019-10-09 16:00:00 28 8 Norte 20 Nordeste 0 936.7 -1 29
2019-10-09 15:00:00 27.8 6 Norte 15 Noroeste 0 937.1 -1 30
2019-10-09 14:00:00 26.8 4 Norte 13 Noroeste 0 937.6 -0.8 31
2019-10-09 13:00:00 25.5 4 Este 10 Este 0 937.7 -0.2 37
2019-10-09 12:00:00 23 5 Sur 22 Sur 0 938.1 1 43
2019-10-09 11:00:00 18.7 12 Nordeste 21 Norte 0 938.4 1.4 61
2019-10-09 10:00:00 16.1 3 Este 7 Sudeste 0 937.9 1.1 71
2019-10-09 09:00:00 13.7 5 Sudeste 13 Sur 0 937.1 0.4 75
2019-10-09 08:00:00 13.4 0 Calma 15 Nordeste 0 937 0.2 69
2019-10-09 07:00:00 15.2 7 Sudeste 18 Sur 0 936.8 -0.2 67
2019-10-09 06:00:00 15.2 5 Sur 20 Sur 0 936.7 -0.8 59
2019-10-09 05:00:00 14.6 4 Oeste 18 Oeste 0 936.8 -0.8 62
2019-10-09 04:00:00 15.5 8 Nordeste 19 Sudoeste 0 937 -0.9 59
2019-10-09 03:00:00 15.9 3 Sudoeste 20 Oeste 0 937.5 -0.5 57
2019-10-09 02:00:00 16.5 5 Oeste 17 Oeste 0 937.6 -0.1 56
2019-10-09 01:00:00 18.4 4 Sur 7 Sudoeste 0 937.9 0.6 48
2019-10-09 00:00:00 18.7 2 Sur 9 Sudoeste 0 938 0.8 48
2019-10-08 23:00:00 19.8 3 Nordeste 8 Sudeste 0 937.7 0.7 43
2019-10-08 22:00:00 22.8 4 Sudeste 13 Este 0 937.3 0.3 35
2019-10-08 21:00:00 24.2 8 Este 14 Este 0 937.2 0.1 32
2019-10-08 20:00:00 27 9 Este 14 Sudeste 0 937 -0.6 27
2019-10-08 19:00:00 29.2 7 Este 16 Sudeste 0 937 -1.3 23
2019-10-08 18:00:00 30.2 7 Sur 19 Nordeste 0 937.1 -1.6 22
2019-10-08 17:00:00 30.6 4 Sudoeste 15 Sur 0 937.6 -1.8 21
2019-10-08 16:00:00 29.3 5 Sudeste 15 Sudeste 0 938.3 -1.8 23
2019-10-08 15:00:00 28.4 5 Sur 16 Este 0 938.7 -1.7 24
2019-10-08 14:00:00 27.3 5 Sudeste 15 Este 0 939.4 -1 26
2019-10-08 13:00:00 24.6 7 Este 24 Este 0 940.1 0 33
2019-10-08 12:00:00 22.6 5 Este 20 Este 0 940.4 0.7 37
2019-10-08 11:00:00 19.3 9 Sudeste 17 Sur 0 940.4 0.7 48
2019-10-08 10:00:00 16.8 7 Sudeste 14 Nordeste 0 940.1 0.7 54
2019-10-08 09:00:00 12.5 0 Calma 13 Nordeste 0 939.7 0.4 69
2019-10-08 08:00:00 12.4 4 Noroeste 19 Oeste 0 939.7 0.5 68
2019-10-08 07:00:00 13.1 4 Sudoeste 17 Sudoeste 0 939.4 -0.1 66
2019-10-08 06:00:00 13.4 7 Sudoeste 18 Sudoeste 0 939.3 -0.2 66
2019-10-08 05:00:00 13.6 7 Oeste 22 Oeste 0 939.2 -0.6 65
2019-10-08 04:00:00 14.1 8 Oeste 23 Norte 0 939.5 -0.3 64
2019-10-08 03:00:00 15.6 9 Nordeste 21 Nordeste 0 939.5 -0.2 58
2019-10-08 02:00:00 15.3 4 Noroeste 16 Norte 0 939.8 0.4 58
2019-10-08 01:00:00 16.5 7 Sudoeste 22 Oeste 0 939.8 0.6 55
2019-10-08 00:00:00 17.2 7 Sudoeste 22 Oeste 0 939.7 0.7 53
2019-10-07 23:00:00 18.6 6 Oeste 14 Sudoeste 0 939.4 0.4 48
2019-10-07 22:00:00 19.9 5 Oeste 11 Norte 0 939.2 0.5 43
2019-10-07 21:00:00 22.4 4 Oeste 12 Norte 0 939 0.3 37
2019-10-07 20:00:00 25.6 3 Noroeste 17 Norte 0 939 0.1 29
2019-10-07 19:00:00 27.2 5 Noroeste 24 Norte 0 938.7 -0.4 26
2019-10-07 18:00:00 27.2 8 Norte 19 Nordeste 0 938.7 -0.9 25
2019-10-07 17:00:00 26.9 5 Nordeste 19 Nordeste 0 938.9 -1.2 24
2019-10-07 16:00:00 26.7 6 Norte 18 Noroeste 0 939.1 -1.5 24
2019-10-07 15:00:00 25.3 6 Norte 27 Norte 0 939.6 -1.1 26
2019-10-07 14:00:00 24 7 Noroeste 24 Oeste 0 940.1 -0.4 30
2019-10-07 13:00:00 23.3 4 Oeste 19 Norte 0 940.6 0.4 32
2019-10-07 12:00:00 21.6 4 Oeste 22 Oeste 0 940.7 1.1 38
2019-10-07 11:00:00 18.8 12 Norte 23 Norte 0 940.5 1.2 44
2019-10-07 10:00:00 14.9 5 Noroeste 14 Oeste 0 940.2 1.1 57
2019-10-07 09:00:00 12.8 4 Noroeste 13 Oeste 0 939.6 0.6 62
2019-10-07 08:00:00 12.8 6 Oeste 22 Oeste 0 939.3 0.4 62
2019-10-07 07:00:00 12.3 9 Oeste 12 Oeste 0 939.1 -0.3 62
2019-10-07 06:00:00 13.2 4 Sudoeste 20 Norte 0 939 -1 58
2019-10-07 05:00:00 15.1 6 Noroeste 26 Oeste 0 938.9 -0.9 51
2019-10-07 04:00:00 15.4 17 Oeste 27 Oeste 0 939.4 -0.7 49
2019-10-07 03:00:00 16.1 13 Oeste 26 Oeste 0 940 -0.1 48
2019-10-07 02:00:00 16.9 14 Noroeste 29 Oeste 0 939.8 0.2 45
2019-10-07 01:00:00 18.4 17 Oeste 32 Oeste 0 940.1 0.9 42
2019-10-07 00:00:00 18.4 16 Noroeste 30 Oeste 0 940.1 1.4 41
2019-10-06 23:00:00 18.5 13 Oeste 29 Oeste 0 939.6 1.1 37
2019-10-06 22:00:00 20.3 6 Oeste 19 Noroeste 0 939.2 0.9 33
2019-10-06 21:00:00 22.7 8 Noroeste 17 Noroeste 0 938.7 0.3 29
2019-10-06 20:00:00 25.5 4 Norte 22 Noroeste 0 938.5 -0.2 25
2019-10-06 19:00:00 27.1 9 Noroeste 22 Noroeste 0 938.3 -0.8 25
2019-10-06 18:00:00 28.3 6 Noroeste 16 Noroeste 0 938.4 -1.4 25
2019-10-06 17:00:00 28.9 5 Sur 14 Este 0 938.7 -1.6 26
2019-10-06 16:00:00 28.1 6 Oeste 17 Oeste 0 939.1 -1.4 26
2019-10-06 15:00:00 27 5 Sur 15 Sur 0 939.8 -1 28
2019-10-06 14:00:00 26.1 4 Este 12 Norte 0 940.3 -0.2 28
2019-10-06 13:00:00 23.5 5 Noroeste 22 Nordeste 0 940.5 0.5 31
2019-10-06 12:00:00 21.5 6 Norte 24 Oeste 0 940.8 1.7 38
2019-10-06 11:00:00 18.8 9 Noroeste 19 Oeste 0 940.5 1.7 54
2019-10-06 10:00:00 14.6 5 Nordeste 13 Nordeste 0 940 1.6 68
2019-10-06 09:00:00 11.7 5 Este 14 Oeste 0 939.1 1 74
2019-10-06 08:00:00 12.5 8 Oeste 14 Oeste 0 938.8 0.6 74
2019-10-06 07:00:00 12.7 6 Sudoeste 15 Oeste 0 938.4 -0.1 72
2019-10-06 06:00:00 13.6 10 Sudoeste 14 Oeste 0 938.1 -0.7 69
2019-10-06 05:00:00 14 7 Oeste 13 Oeste 0 938.2 -0.1 68
2019-10-06 04:00:00 14.7 9 Oeste 23 Oeste 0 938.5 0.1 66
2019-10-06 03:00:00 15.1 12 Noroeste 24 Oeste 0 938.8 0.5 65
2019-10-06 02:00:00 16.2 10 Oeste 23 Oeste 0 938.3 0.1 59
2019-10-06 01:00:00 16.6 7 Sudoeste 19 Sudoeste 0 938.4 0.8 57
2019-10-06 00:00:00 17.9 8 Sudoeste 21 Oeste 0 938.3 1.2 53
2019-10-05 23:00:00 18 7 Noroeste 23 Oeste 0 938.2 1.6 52
2019-10-05 22:00:00 21.5 4 Norte 12 Noroeste 0 937.6 1.4 40
2019-10-05 21:00:00 23 5 Norte 15 Noroeste 0 937.1 0.9 37
2019-10-05 20:00:00 25.5 4 Norte 14 Norte 0 936.6 0.2 32
2019-10-05 19:00:00 27 6 Norte 19 Noroeste 0 936.2 -0.4 29
2019-10-05 18:00:00 28.1 6 Noroeste 18 Noroeste 0 936.2 -0.9 27
2019-10-05 17:00:00 27.8 7 Noroeste 19 Noroeste 0 936.4 -1.4 27
2019-10-05 16:00:00 26.7 6 Noroeste 33 Oeste 0 936.6 -1.3 30
2019-10-05 15:00:00 26.1 9 Oeste 31 Oeste 0 937.1 -0.9 29
2019-10-05 14:00:00 25.5 9 Sudoeste 23 Oeste 0 937.8 -0.2 32
2019-10-05 13:00:00 24 4 Oeste 19 Nordeste 0 937.9 0.4 38
2019-10-05 12:00:00 21.8 4 Noroeste 20 Norte 0 938 0.9 45
2019-10-05 11:00:00 20.8 2 Este 15 Nordeste 0 938 1.5 47
2019-10-05 10:00:00 15 0 Calma 11 Sudeste 0 937.5 1 62
2019-10-05 09:00:00 11.3 4 Sudoeste 11 Este 0 937.1 0.6 73
2019-10-05 08:00:00 11.2 3 Oeste 11 Norte 0 936.5 -0.2 71
2019-10-05 07:00:00 11.6 3 Oeste 11 Norte 0 936.5 -0.4 69
2019-10-05 06:00:00 12.4 4 Oeste 12 Oeste 0 936.5 -0.5 67
2019-10-05 05:00:00 13.9 7 Sur 13 Este 0 936.7 -0.4 61
2019-10-05 04:00:00 13.3 4 Sudoeste 16 Sudoeste 0 936.9 -0.2 61
2019-10-05 03:00:00 14.4 5 Sur 19 Sudoeste 0 937 -0.1 56
2019-10-05 02:00:00 14.7 8 Sudoeste 21 Oeste 0 937.1 0.1 54
2019-10-05 01:00:00 15.9 8 Oeste 23 Oeste 0 937.1 0.4 50
2019-10-05 00:00:00 16.9 16 Oeste 25 Oeste 0 937.1 0.9 47
2019-10-04 23:00:00 19.2 13 Oeste 29 Oeste 0 937 1 39
2019-10-04 22:00:00 19.9 8 Oeste 27 Oeste 0 936.7 0.8 38
2019-10-04 21:00:00 23.5 5 Oeste 15 Oeste 0 936.2 0.3 29
2019-10-04 20:00:00 26.2 10 Noroeste 21 Oeste 0 936 -0.3 24
2019-10-04 19:00:00 28.5 9 Sudoeste 25 Noroeste 0 935.9 -1 19
2019-10-04 18:00:00 29.1 14 Sudoeste 25 Sudoeste 0 935.9 -1.6 18
2019-10-04 17:00:00 29 9 Sudoeste 23 Sudoeste 0 936.3 -2.1 18
2019-10-04 16:00:00 28.6 7 Sudoeste 24 Sur 0 936.9 -2 18
2019-10-04 15:00:00 27.2 6 Sudeste 17 Sudeste 0 937.5 -1.9 22
2019-10-04 14:00:00 25.3 6 Sudeste 27 Este 0 938.4 -1 26
2019-10-04 13:00:00 23.2 11 Sudeste 25 Este 0 938.9 -0.2 31
2019-10-04 12:00:00 21 9 Sudeste 19 Este 0 939.4 0.6 37
2019-10-04 11:00:00 18.8 8 Sudeste 13 Sur 0 939.4 0.8 43
2019-10-04 10:00:00 14.2 3 Sur 20 Este 0 939.1 0.5 55
2019-10-04 09:00:00 10.2 2 Este 12 Este 0 938.8 0.3 67
2019-10-04 08:00:00 11 3 Sur 13 Sur 0 938.6 0.2 64
2019-10-04 07:00:00 11.3 2 Sudeste 13 Sur 0 938.6 0 61
2019-10-04 06:00:00 11.3 5 Este 21 Este 0 938.5 -0.5 62
2019-10-04 05:00:00 13 9 Sudoeste 12 Sudoeste 0 938.4 -0.6 57
2019-10-04 04:00:00 13.1 8 Sudoeste 13 Sudoeste 0 938.6 -0.8 56
2019-10-04 03:00:00 13.2 9 Sudoeste 12 Sudoeste 0 939 -0.2 55
2019-10-04 02:00:00 14 6 Sur 12 Sudoeste 0 939 -0.1 49
2019-10-04 01:00:00 14 5 Sudoeste 18 Oeste 0 939.4 0.5 50
2019-10-04 00:00:00 15 9 Oeste 21 Sudoeste 0 939.2 0.5 46
2019-10-03 23:00:00 16.8 7 Sudoeste 19 Sudoeste 0 939.1 0.7 42
2019-10-03 22:00:00 19.6 5 Sur 9 Sur 0 938.9 0.8 32
2019-10-03 21:00:00 21.2 2 Este 4 Nordeste 0 938.7 0.5 28
2019-10-03 20:00:00 23.6 3 Norte 32 Norte 0 938.4 0 23
2019-10-03 19:00:00 25.1 9 Norte 22 Noroeste 0 938.1 -0.7 21
2019-10-03 18:00:00 26.1 11 Noroeste 29 Oeste 0 938.2 -1 20
2019-10-03 17:00:00 25.2 7 Noroeste 31 Oeste 0 938.4 -1.4 22
2019-10-03 16:00:00 24.7 10 Noroeste 32 Oeste 0 938.8 -1.3 23
2019-10-03 15:00:00 23.4 8 Noroeste 28 Noroeste 0 939.2 -1.3 29
2019-10-03 14:00:00 22.8 10 Oeste 29 Oeste 0 939.8 -0.5 30
2019-10-03 13:00:00 21.2 13 Oeste 24 Oeste 0 940.1 0.2 35
2019-10-03 12:00:00 19.5 5 Este 18 Norte 0 940.5 0.9 41
2019-10-03 11:00:00 16.8 8 Noroeste 15 Oeste 0 940.3 0.9 49
2019-10-03 10:00:00 12.3 3 Oeste 11 Norte 0 939.9 0.6 65
2019-10-03 09:00:00 9.2 2 Noroeste 10 Norte 0 939.6 0.7 73
2019-10-03 08:00:00 8.5 6 Oeste 11 Norte 0 939.4 0.3 75
2019-10-03 07:00:00 8.9 5 Noroeste 11 Norte 0 939.3 0.2 73
2019-10-03 06:00:00 10.2 4 Sudoeste 11 Norte 0 938.9 -0.7 68
2019-10-03 05:00:00 10.9 6 Sudoeste 11 Sudoeste 0 939.1 -0.4 65
2019-10-03 04:00:00 11.1 5 Oeste 18 Oeste 0 939.1 -0.6 63
2019-10-03 03:00:00 11.2 8 Noroeste 18 Oeste 0 939.6 0.1 62
2019-10-03 02:00:00 12 8 Oeste 19 Oeste 0 939.5 0.2 58
2019-10-03 01:00:00 13 5 Oeste 22 Norte 0 939.7 0.8 53
2019-10-03 00:00:00 13.6 13 Noroeste 22 Oeste 0 939.5 0.9 50
2019-10-02 23:00:00 14.8 7 Oeste 19 Oeste 0 939.3 1.1 48
2019-10-02 22:00:00 16.7 5 Oeste 22 Norte 0 938.9 1.2 40
2019-10-02 21:00:00 19.1 6 Nordeste 22 Nordeste 0 938.6 0.6 31
2019-10-02 20:00:00 21.2 6 Norte 31 Norte 0 938.2 0.2 27
2019-10-02 19:00:00 22.2 17 Norte 39 Norte 0 937.7 -0.3 26
2019-10-02 18:00:00 22.9 16 Noroeste 37 Norte 0 938 -0.4 25
2019-10-02 17:00:00 22.6 13 Norte 32 Norte 0 938 -0.5 27
2019-10-02 16:00:00 22.4 15 Noroeste 32 Norte 0 938 -0.9 28
2019-10-02 15:00:00 21.4 10 Norte 29 Norte 0 938.4 -0.4 33
2019-10-02 14:00:00 20.2 14 Norte 31 Norte 0 938.5 0 37
2019-10-02 13:00:00 19.2 14 Norte 29 Norte 0 938.9 0.8 44
2019-10-02 12:00:00 17.4 15 Norte 27 Norte 0 938.8 1.1 50
2019-10-02 11:00:00 16.1 14 Noroeste 21 Oeste 0 938.5 1.5 53
2019-10-02 10:00:00 13.9 8 Noroeste 18 Oeste 0 938.1 1.2 66
2019-10-02 09:00:00 11.2 7 Oeste 13 Norte 0 937.7 1.2 76
2019-10-02 08:00:00 10.8 8 Noroeste 15 Oeste 0 937 0.3 74
2019-10-02 07:00:00 11.8 3 Oeste 23 Noroeste 0 936.9 0.1 72
2019-10-02 06:00:00 14 13 Noroeste 24 Noroeste 0 936.5 -0.3 65
2019-10-02 05:00:00 14.4 9 Noroeste 27 Noroeste 0 936.7 -0.2 63
2019-10-02 04:00:00 15.5 14 Noroeste 32 Noroeste 0 936.8 -0.3 60
2019-10-02 03:00:00 16.6 18 Noroeste 30 Noroeste 0 936.8 0 56
2019-10-02 02:00:00 16.7 16 Oeste 31 Noroeste 0 936.9 0.7 56
2019-10-02 01:00:00 17.4 18 Noroeste 31 Oeste 0 937.1 1.1 55
2019-10-02 00:00:00 18.5 17 Noroeste 33 Oeste 0 936.8 1.6 52
2019-10-01 23:00:00 19.7 17 Noroeste 32 Oeste 0 936.2 1.4 47
2019-10-01 22:00:00 19.4 10 Noroeste 30 Oeste 0 936 1.5 39
2019-10-01 21:00:00 21.9 12 Noroeste 40 Oeste 0 935.2 0.9 29
2019-10-01 20:00:00 24.3 14 Noroeste 44 Noroeste 0 934.8 0.6 24
2019-10-01 19:00:00 26.1 23 Noroeste 40 Noroeste 0 934.5 0.1 19
2019-10-01 18:00:00 27.3 22 Noroeste 37 Noroeste 0 934.3 -0.4 20
2019-10-01 17:00:00 27.2 19 Noroeste 44 Noroeste 0 934.2 -0.9 21
2019-10-01 16:00:00 26.9 17 Noroeste 36 Norte 0 934.4 -1.2 25
2019-10-01 15:00:00 26.4 18 Noroeste 32 Oeste 0 934.7 -1.2 28
2019-10-01 14:00:00 27.4 18 Oeste 33 Oeste 0 935.1 -0.7 19
2019-10-01 13:00:00 26.6 7 Oeste 32 Oeste 0 935.6 0.3 25
2019-10-01 12:00:00 24.8 5 Oeste 23 Sudoeste 0 935.9 0.9 26
2019-10-01 11:00:00 21.8 6 Sudoeste 21 Sudoeste 0 935.8 1 32
2019-10-01 10:00:00 17 12 Oeste 21 Oeste 0 935.3 0.7 49
2019-10-01 09:00:00 14 8 Oeste 22 Oeste 0 935 0.3 58
2019-10-01 08:00:00 13.8 6 Sudeste 12 Sur 0 934.8 -0.1 57
2019-10-01 07:00:00 14 4 Este 14 Este 0 934.6 -0.9 55
2019-10-01 06:00:00 15.7 9 Sudoeste 14 Sudoeste 0 934.7 -1.5 49
2019-10-01 05:00:00 15.9 11 Sudoeste 21 Sudoeste 0 934.9 -1.5 49
2019-10-01 04:00:00 17.2 8 Sudoeste 20 Sudoeste 0 935.5 -0.8 42
2019-10-01 03:00:00 17.3 12 Sudoeste 23 Sur 0 936.2 -0.4 42
2019-10-01 02:00:00 18.2 9 Oeste 27 Sur 0 936.4 -0.1 38
2019-10-01 01:00:00 16.8 7 Sudoeste 9 Oeste 0 936.3 0 49
2019-10-01 00:00:00 18.2 6 Oeste 18 Sudoeste 0 936.6 0.6 44
2019-09-30 23:00:00 20.5 13 Sudoeste 24 Sudoeste 0 936.5 0.6 34
2019-09-30 22:00:00 21.5 10 Sudoeste 24 Sudoeste 0 936.3 0.2 31
2019-09-30 21:00:00 24.6 6 Sudoeste 14 Sudoeste 0 936 -0.2 25
2019-09-30 20:00:00 28.2 8 Sudoeste 17 Sudoeste 0 935.9 -0.8 17
2019-09-30 19:00:00 29.9 12 Sudoeste 21 Sudoeste 0 936.1 -1.1 15
2019-09-30 18:00:00 30.6 11 Oeste 26 Sur 0 936.2 -1.8 14
2019-09-30 17:00:00 30.6 9 Sudeste 18 Sur 0 936.7 -2.1 15
2019-09-30 16:00:00 30.6 7 Sudeste 18 Sudeste 0 937.2 -2 15
2019-09-30 15:00:00 30.4 3 Sur 17 Sudeste 0 938 -1.3 16
2019-09-30 14:00:00 28.2 6 Este 17 Este 0 938.8 -0.4 19
2019-09-30 13:00:00 26.6 4 Sudeste 10 Este 0 939.2 0.2 21
2019-09-30 12:00:00 24.2 5 Este 10 Sudeste 0 939.3 0.6 26
2019-09-30 11:00:00 21.7 0 Calma 18 Oeste 0 939.2 0.7 36
2019-09-30 10:00:00 16.6 3 Oeste 12 Oeste 0 939 0.7 47
2019-09-30 09:00:00 13.1 5 Sudoeste 17 Sudoeste 0 938.7 0.4 55
2019-09-30 08:00:00 12.6 6 Sudeste 17 Sudoeste 0 938.5 0.1 62
2019-09-30 07:00:00 13 7 Sudeste 19 Sudoeste 0 938.3 -0.4 58
2019-09-30 06:00:00 12.9 4 Sur 12 Este 0 938.3 -0.6 61
2019-09-30 05:00:00 12.6 8 Noroeste 19 Oeste 0 938.4 -0.7 65
2019-09-30 04:00:00 14 12 Oeste 21 Sudoeste 0 938.7 -0.5 58
2019-09-30 03:00:00 15 4 Sudoeste 19 Sudoeste 0 938.9 -0.2 53
2019-09-30 02:00:00 16.2 6 Sudoeste 20 Sudoeste 0 939.1 0.2 49
2019-09-30 01:00:00 16.1 8 Sudoeste 20 Sudoeste 0 939.2 0.7 54
2019-09-30 00:00:00 17 12 Oeste 22 Oeste 0 939.1 1 56
2019-09-29 23:00:00 19 6 Oeste 22 Oeste 0 938.9 1.1 46
2019-09-29 22:00:00 21.2 4 Oeste 11 Noroeste 0 938.5 0.7 43
2019-09-29 21:00:00 24.7 6 Nordeste 11 Nordeste 0 938.1 0.2 27
2019-09-29 20:00:00 27.8 3 Norte 12 Norte 0 937.8 -0.5 21
2019-09-29 19:00:00 29.1 6 Norte 14 Nordeste 0 937.8 -0.8 18
2019-09-29 18:00:00 29.4 8 Norte 21 Noroeste 0 937.9 -1.3 17
2019-09-29 17:00:00 29.8 9 Noroeste 17 Norte 0 938.3 -1.5 18
2019-09-29 16:00:00 29.2 7 Norte 17 Norte 0 938.6 -1.4 19
2019-09-29 15:00:00 28.6 7 Norte 16 Noroeste 0 939.2 -1 21
2019-09-29 14:00:00 27.3 6 Norte 13 Noroeste 0 939.8 -0.1 26
2019-09-29 13:00:00 26.2 2 Sudeste 22 Este 0 940 0.3 33
2019-09-29 12:00:00 22.7 8 Sudeste 22 Este 0 940.2 1 44
2019-09-29 11:00:00 19.2 10 Sur 18 Sur 0 939.9 1 62
2019-09-29 10:00:00 16.4 0 Calma 11 Sur 0 939.7 1 73
2019-09-29 09:00:00 12.3 3 Nordeste 17 Norte 0 939.2 0.4 74
2019-09-29 08:00:00 12 7 Noroeste 15 Oeste 0 938.9 -0.1 72
2019-09-29 07:00:00 13.3 3 Sudeste 18 Norte 0 938.7 -0.7 69
2019-09-29 06:00:00 13.7 8 Norte 19 Norte 0 938.8 -0.7 64
2019-09-29 05:00:00 14.2 3 Sudoeste 17 Este 0 939 -0.5 64
2019-09-29 04:00:00 15.1 9 Sudeste 27 Este 0 939.4 -0.4 57
2019-09-29 03:00:00 15.3 3 Norte 19 Oeste 0 939.5 0 59
2019-09-29 02:00:00 16.2 5 Oeste 18 Oeste 0 939.5 0.2 56
2019-09-29 01:00:00 17.3 8 Sudeste 23 Este 0 939.8 0.7 50
2019-09-29 00:00:00 18 4 Noroeste 7 Sudeste 0 939.5 0.6 50
2019-09-28 23:00:00 19.5 3 Noroeste 24 Oeste 0 939.3 0.5 43
2019-09-28 22:00:00 22.5 4 Sudoeste 14 Sudeste 0 939.1 0.2 32
2019-09-28 21:00:00 25.4 7 Sur 13 Sudeste 0 938.9 -0.1 24
2019-09-28 20:00:00 28.1 6 Sudoeste 17 Sudoeste 0 938.8 -0.5 19
2019-09-28 19:00:00 29.6 5 Sur 19 Sudoeste 0 938.9 -0.7 15
2019-09-28 18:00:00 29.7 5 Sudoeste 18 Sudoeste 0 939 -1.3 14
2019-09-28 17:00:00 29.5 7 Sur 21 Sudoeste 0 939.3 -1.9 15
2019-09-28 16:00:00 28.7 9 Este 22 Sudeste 0 939.6 -2 19
2019-09-28 15:00:00 28.3 5 Sur 18 Este 0 940.3 -1.6 20
2019-09-28 14:00:00 26.7 6 Sudeste 15 Este 0 941.2 -0.3 21
2019-09-28 13:00:00 25.2 5 Este 22 Este 0 941.6 0.6 28
2019-09-28 12:00:00 23.1 6 Sudeste 19 Este 0 941.9 1.4 32
2019-09-28 11:00:00 20.9 6 Este 15 Sudoeste 0 941.5 1.4 36
2019-09-28 10:00:00 17 3 Sur 11 Este 0 941 1 47
2019-09-28 09:00:00 12.4 4 Sur 11 Este 0 940.5 0.5 66
2019-09-28 08:00:00 11.6 4 Sudoeste 11 Este 0 940.1 0.1 67
2019-09-28 07:00:00 12.2 7 Oeste 13 Oeste 0 940 0.1 67
2019-09-28 06:00:00 12.4 8 Oeste 12 Oeste 0 940 -0.2 66
2019-09-28 05:00:00 13 8 Oeste 22 Oeste 0 940 -0.3 65
2019-09-28 04:00:00 14 9 Oeste 22 Oeste 0 939.9 -0.3 61
2019-09-28 03:00:00 15.2 8 Oeste 22 Oeste 0 940.2 0.2 55
2019-09-28 02:00:00 15.7 9 Oeste 23 Oeste 0 940.3 0.5 53
2019-09-28 01:00:00 17.1 10 Oeste 22 Oeste 0 940.2 0.7 47
2019-09-28 00:00:00 19.1 8 Noroeste 18 Norte 0 940 1.2 39
2019-09-27 23:00:00 20 8 Noroeste 17 Norte 0 939.8 1.3 45
2019-09-27 22:00:00 21 9 Noroeste 26 Oeste 0 939.5 1 51
2019-09-27 21:00:00 24.4 3 Nordeste 13 Noroeste 0 938.8 0.5 35
2019-09-27 20:00:00 26.8 6 Norte 15 Norte 0 938.5 0.1 28
2019-09-27 19:00:00 27.9 8 Norte 32 Norte 0 938.5 -0.2 26
2019-09-27 18:00:00 28.2 6 Norte 25 Norte 0 938.3 -1.2 27
2019-09-27 17:00:00 28.9 13 Noroeste 30 Oeste 0 938.4 -1.5 26
2019-09-27 16:00:00 28.9 5 Sur 19 Este 0 938.7 -1.6 26
2019-09-27 15:00:00 27.2 4 Nordeste 19 Sudeste 0 939.5 -1 29
2019-09-27 14:00:00 26.8 6 Sudeste 16 Sudeste 0 939.9 -0.6 30
2019-09-27 13:00:00 25.5 7 Sudeste 24 Este 0 940.3 0 35
2019-09-27 12:00:00 23.8 4 Este 20 Este 0 940.5 0.4 44
2019-09-27 11:00:00 20.9 3 Este 17 Este 0 940.5 0.8 53
2019-09-27 10:00:00 17.3 7 Sudeste 12 Sur 0 940.3 0.9 66
2019-09-27 09:00:00 14 2 Sur 13 Sur 0 940.1 0.7 73
2019-09-27 08:00:00 13.2 4 Sur 14 Oeste 0 939.7 0.4 76
2019-09-27 07:00:00 14 7 Oeste 16 Oeste 0 939.4 -0.2 74
2019-09-27 06:00:00 13.9 5 Oeste 9 Oeste 0 939.4 -0.5 77
2019-09-27 05:00:00 14.9 5 Oeste 8 Oeste 0 939.3 -0.6 71
2019-09-27 04:00:00 15.2 8 Oeste 20 Oeste 0 939.6 -0.4 71
2019-09-27 03:00:00 16.4 5 Sudoeste 9 Oeste 0 939.9 0.1 65
2019-09-27 02:00:00 16.9 6 Sudoeste 18 Oeste 0 939.9 0.4 64
2019-09-27 01:00:00 17.9 5 Oeste 16 Nordeste 0 940 0.8 60
2019-09-27 00:00:00 18.7 5 Oeste 9 Sudoeste 0 939.8 1 56
2019-09-26 23:00:00 21 2 Sur 9 Este 0 939.5 0.9 45
2019-09-26 22:00:00 22.9 3 Sudeste 8 Este 0 939.2 0.7 35
2019-09-26 21:00:00 24.3 3 Este 11 Sudeste 0 938.8 0.3 33
2019-09-26 20:00:00 27.2 4 Sudoeste 10 Sudoeste 0 938.6 -0.3 27
2019-09-26 19:00:00 28.1 5 Sudoeste 17 Oeste 0 938.5 -0.7 23
2019-09-26 18:00:00 28 7 Sudeste 18 Sudeste 0 938.5 -1.1 25
2019-09-26 17:00:00 27.9 4 Sur 20 Este 0 938.9 -1.4 25
2019-09-26 16:00:00 26.8 8 Sudeste 17 Este 0 939.2 -1.6 27
2019-09-26 15:00:00 25.9 8 Este 27 Este 0 939.6 -1.4 29
2019-09-26 14:00:00 24.9 10 Sudeste 28 Este 0 940.3 -0.5 31
2019-09-26 13:00:00 23.4 11 Sudeste 26 Este 0 940.8 0.4 37
2019-09-26 12:00:00 21.4 10 Sudeste 22 Este 0 941 1.2 43
2019-09-26 11:00:00 18.8 7 Este 13 Sur 0 940.8 1.3 56
2019-09-26 10:00:00 16.2 4 Sudeste 10 Sudeste 0 940.4 1.4 66
2019-09-26 09:00:00 13.7 0 Calma 12 Sur 0 939.8 1 72
2019-09-26 08:00:00 12.8 4 Sudeste 12 Oeste 0 939.5 0.7 74
2019-09-26 07:00:00 13.2 6 Sur 17 Oeste 0 939 0.2 74
2019-09-26 06:00:00 12.8 7 Noroeste 18 Oeste 0 938.8 -0.3 77
2019-09-26 05:00:00 13.4 5 Oeste 17 Oeste 0 938.8 -0.4 76
2019-09-26 04:00:00 14 5 Sudoeste 9 Sudeste 0 938.8 -0.4 72
2019-09-26 03:00:00 14.6 6 Sudoeste 21 Oeste 0 939.1 0.1 71
2019-09-26 02:00:00 15.4 5 Sur 21 Norte 0 939.2 0.4 68
2019-09-26 01:00:00 16.2 6 Sudoeste 15 Oeste 0 939.2 0.6 61
2019-09-26 00:00:00 17.3 7 Sudoeste 18 Sudoeste 0 939 0.9 58
2019-09-25 23:00:00 18.7 3 Sur 6 Sur 0 938.8 1 50
2019-09-25 22:00:00 20 0 Calma 6 Nordeste 0 938.6 0.9 44
2019-09-25 21:00:00 21.3 2 Sudeste 17 Norte 0 938.1 0.6 37
2019-09-25 20:00:00 23.1 12 Norte 31 Norte 0 937.8 0 32
2019-09-25 19:00:00 24.1 13 Noroeste 31 Oeste 0 937.7 -0.5 30
2019-09-25 18:00:00 24.6 11 Noroeste 31 Oeste 0 937.5 -1.1 31
2019-09-25 17:00:00 24 10 Noroeste 28 Oeste 0 937.8 -1.3 31
2019-09-25 16:00:00 23.4 12 Noroeste 30 Oeste 0 938.2 -1.2 33
2019-09-25 15:00:00 22.5 12 Oeste 30 Noroeste 0 938.6 -1 39
2019-09-25 14:00:00 21.2 9 Noroeste 26 Noroeste 0 939.1 -0.4 46
2019-09-25 13:00:00 19.9 9 Oeste 26 Noroeste 0 939.4 0.5 52
2019-09-25 12:00:00 18.7 14 Noroeste 31 Norte 0 939.6 1.2 56
2019-09-25 11:00:00 17.1 15 Noroeste 26 Noroeste 0 939.5 1.6 63
2019-09-25 10:00:00 15.7 11 Noroeste 23 Norte 0 938.9 1.1 71
2019-09-25 09:00:00 15 8 Oeste 21 Oeste 0 938.4 0.6 82
2019-09-25 08:00:00 14.8 11 Noroeste 24 Oeste 0 937.9 0.1 83
2019-09-25 07:00:00 15.1 8 Noroeste 25 Oeste 0 937.8 -0.4 82
2019-09-25 06:00:00 15.8 15 Noroeste 27 Oeste 0 937.8 -0.3 82
2019-09-25 05:00:00 16.4 19 Noroeste 28 Oeste 0 937.8 -0.7 84
2019-09-25 04:00:00 16.8 9 Noroeste 22 Oeste 0 938.2 -0.3 81
2019-09-25 03:00:00 17.4 6 Noroeste 26 Oeste 0 938.1 -0.5 79
2019-09-25 02:00:00 17.7 5 Noroeste 23 Oeste 0 938.5 -0.2 77
2019-09-25 01:00:00 18.7 5 Oeste 11 Oeste 0 938.5 -0.1 69
2019-09-25 00:00:00 19.4 3 Oeste 25 Oeste 0 938.6 0.7 71
2019-09-24 23:00:00 20.3 12 Oeste 33 Oeste 0 938.7 1.1 68
2019-09-24 22:00:00 21.8 19 Oeste 35 Oeste 0 938.6 1.2 59
2019-09-24 21:00:00 23.4 12 Sudoeste 34 Sudoeste 0 937.9 0.4 38
2019-09-24 20:00:00 25.9 22 Sudoeste 35 Sudoeste 0 937.6 -0.3 29
2019-09-24 19:00:00 27.9 15 Sudoeste 32 Oeste 0 937.4 -1.1 25
2019-09-24 18:00:00 28.7 17 Oeste 32 Oeste 0 937.5 -1.8 23
2019-09-24 17:00:00 28.6 18 Oeste 39 Oeste 0 937.9 -2.3 23
2019-09-24 16:00:00 28.2 15 Oeste 25 Oeste 0 938.5 -2.2 23
2019-09-24 15:00:00 26.5 6 Noroeste 28 Sudoeste 0 939.3 -1.9 29
2019-09-24 14:00:00 25.6 8 Sudoeste 25 Sur 0 940.2 -0.7 29
2019-09-24 13:00:00 23.7 10 Sudoeste 24 Oeste 0 940.7 0.1 33
2019-09-24 12:00:00 21.9 11 Oeste 24 Oeste 0 941.2 0.8 38
2019-09-24 11:00:00 19.2 10 Sudoeste 21 Sur 0 940.9 0.8 50
2019-09-24 10:00:00 15.9 5 Sur 11 Este 0 940.6 0.8 65
2019-09-24 09:00:00 11.9 3 Oeste 12 Norte 0 940.4 0.5 81
2019-09-24 08:00:00 12.3 6 Sur 12 Sudeste 0 940.1 0.1 78
2019-09-24 07:00:00 12.2 5 Sudoeste 13 Oeste 0 939.8 -0.6 80
2019-09-24 06:00:00 11.9 6 Oeste 12 Norte 0 939.9 -1 82
2019-09-24 05:00:00 12.5 4 Oeste 11 Norte 0 940 -1 81
2019-09-24 04:00:00 13.6 6 Oeste 9 Oeste 0 940.4 -0.6 77
2019-09-24 03:00:00 14.2 6 Oeste 17 Oeste 0 940.9 -0.2 78
2019-09-24 02:00:00 14.4 6 Oeste 21 Oeste 0 941 -0.2 80
2019-09-24 01:00:00 15.7 5 Oeste 20 Oeste 0 941 0.1 74
2019-09-24 00:00:00 17.5 9 Sudoeste 20 Sur 0 941.1 0.6 62
2019-09-23 23:00:00 18.4 5 Sudeste 11 Sudeste 0 941.2 0.8 57
2019-09-23 22:00:00 19.5 8 Sudeste 23 Este 0 940.9 0.6 56
2019-09-23 21:00:00 21 7 Sudeste 23 Este 0 940.5 0.1 50
2019-09-23 20:00:00 23.1 6 Sudeste 12 Sudeste 0 940.4 0.1 39
2019-09-23 19:00:00 23.7 4 Este 23 Este 0 940.3 -0.4 38
2019-09-23 18:00:00 24.1 5 Este 22 Sudoeste 0 940.4 -0.7 37
2019-09-23 17:00:00 23.1 4 Este 15 Sur 0 940.3 -0.8 38
2019-09-23 16:00:00 22.1 6 Este 22 Norte 0 940.7 -0.8 42
2019-09-23 15:00:00 22 6 Sudoeste 22 Sudeste 0 941.1 -1 42
2019-09-23 14:00:00 21.6 8 Sur 20 Sudeste 0 941.1 -0.6 44
2019-09-23 13:00:00 19.8 5 Este 22 Norte 0 941.5 0.1 48
2019-09-23 12:00:00 18.1 8 Noroeste 21 Norte 0 942.1 1.5 54
2019-09-23 11:00:00 17 4 Sudeste 11 Sur 0 941.7 1.4 64
2019-09-23 10:00:00 13.5 2 Este 5 Sudeste 0 941.4 1.4 79
2019-09-23 09:00:00 10.7 2 Sudoeste 9 Norte 0 940.6 1.1 87
2019-09-23 08:00:00 10 6 Oeste 9 Este 0 940.3 0.9 87
2019-09-23 07:00:00 10.8 5 Sudoeste 11 Este 0 940 0.8 84
2019-09-23 06:00:00 11.3 3 Oeste 12 Nordeste 0 939.5 -0.1 83
2019-09-23 05:00:00 11.7 6 Sudoeste 11 Oeste 0 939.4 0 82
2019-09-23 04:00:00 12.1 3 Sudoeste 11 Este 0 939.2 0.1 80
2019-09-23 03:00:00 12.7 6 Sudoeste 10 Este 0 939.6 0.4 78
2019-09-23 02:00:00 13.2 5 Sudoeste 11 Norte 0 939.4 0.6 77
2019-09-23 01:00:00 13.9 6 Sudoeste 12 Sudoeste 0 939.1 1.1 75
2019-09-23 00:00:00 14.8 5 Oeste 15 Oeste 0 939.2 2.1 72
2019-09-22 23:00:00 15.6 6 Oeste 22 Oeste 0 938.8 2.4 69
2019-09-22 22:00:00 16.7 9 Oeste 26 Oeste 0 938 1.9 61
2019-09-22 21:00:00 17.6 16 Oeste 26 Oeste 0 937.1 1.4 60
2019-09-22 20:00:00 20.2 9 Noroeste 22 Nordeste 0 936.4 0.7 50
2019-09-22 19:00:00 21.9 12 Noroeste 28 Oeste 0 936.1 0.3 42
2019-09-22 18:00:00 22.7 17 Oeste 30 Noroeste 0 935.7 0.1 34
2019-09-22 17:00:00 22.6 15 Oeste 29 Oeste 0 935.7 -0.1 33
2019-09-22 16:00:00 22.3 15 Sudoeste 31 Sudoeste 0 935.8 0.1 42
2019-09-22 15:00:00 21.3 16 Sudoeste 31 Oeste 0 935.6 -0.2 49
2019-09-22 14:00:00 20 13 Sudoeste 27 Sudoeste 0 935.8 0.2 69
2019-09-22 13:00:00 19.1 22 Sudoeste 36 Sudoeste 0 935.7 0.4 82
2019-09-22 12:00:00 19.4 19 Sudoeste 36 Sudoeste 0 935.8 1.2 75
2019-09-22 11:00:00 18.1 15 Sudoeste 40 Sudoeste 0 935.6 1.5 80
2019-09-22 10:00:00 17.4 14 Sudoeste 26 Sudoeste 0 935.3 1.3 83
2019-09-22 09:00:00 16.8 13 Sudoeste 27 Sudoeste 0 934.6 0.7 82
2019-09-22 08:00:00 17.2 15 Sudoeste 46 Sudoeste 0 934.1 -0.1 79
2019-09-22 07:00:00 17.5 13 Sur 27 Sur 0 934 -0.4 77
2019-09-22 06:00:00 17.1 14 Sur 27 Sur 0 933.9 -0.5 78
2019-09-22 05:00:00 17.1 14 Sur 26 Sur 0 934.2 -0.3 77
2019-09-22 04:00:00 17.2 9 Sudoeste 28 Sur 0 934.4 -0.3 76
2019-09-22 03:00:00 17.9 15 Sur 32 Sur 0 934.4 -0.6 71
2019-09-22 02:00:00 18.1 15 Sur 27 Sudoeste 0 934.5 -0.2 70
2019-09-22 01:00:00 17.4 11 Sudoeste 24 Sur 0 934.7 0.3 73
2019-09-22 00:00:00 17.3 9 Sudoeste 23 Sur 0 935 1.3 78
2019-09-21 23:00:00 17.6 9 Sudoeste 23 Sudoeste 0 934.7 1 76
2019-09-21 22:00:00 18.7 12 Sudoeste 27 Sudoeste 0 934.4 1 71
2019-09-21 21:00:00 19.9 14 Sudoeste 28 Sur 0 933.7 0.1 68
2019-09-21 20:00:00 21.2 18 Sudoeste 35 Sudoeste 0 933.7 0 61
2019-09-21 19:00:00 22.1 16 Sudoeste 32 Sudoeste 0 933.4 -0.9 59
2019-09-21 18:00:00 22.2 15 Sudoeste 33 Sudoeste 0 933.6 -1 60
2019-09-21 17:00:00 22.5 10 Sudoeste 27 Sur 0 933.7 -1.2 61
2019-09-21 16:00:00 21.7 10 Sur 27 Sur 0.2 934.3 -1.2 65
2019-09-21 15:00:00 21.6 12 Sur 26 Sudeste 0 934.6 -0.9 63
2019-09-21 14:00:00 21.9 11 Sur 27 Sur 0 934.9 -0.4 62
2019-09-21 13:00:00 20.5 8 Sudoeste 23 Sur 0 935.5 0.3 69
2019-09-21 12:00:00 19.7 6 Sur 22 Este 0 935.5 0.4 71
2019-09-21 11:00:00 19 8 Sudeste 19 Sudeste 0 935.3 0.3 74
2019-09-21 10:00:00 17.3 5 Sudoeste 19 Sur 0 935.2 0.3 85
2019-09-21 09:00:00 15.8 9 Sur 18 Este 0 935.1 0.2 87
2019-09-21 08:00:00 15.7 4 Sur 19 Sur 0 935 0.2 86
2019-09-21 07:00:00 15.6 5 Sudoeste 19 Oeste 0 934.9 -0.2 86
2019-09-21 06:00:00 16.3 4 Sudoeste 19 Sudoeste 0 934.9 -0.4 84
2019-09-21 05:00:00 16.6 9 Oeste 21 Oeste 0 934.8 -0.2 85
2019-09-21 04:00:00 17.3 2 Oeste 19 Este 0 935.1 -0.2 85
2019-09-21 03:00:00 17.6 10 Oeste 23 Este 0.2 935.3 0.6 81
2019-09-21 02:00:00 17.8 8 Sudeste 23 Sudeste 0 935 0.2 83
2019-09-21 01:00:00 17.9 8 Sudeste 24 Sudeste 0 935.3 0.3 80
2019-09-21 00:00:00 18.4 7 Sudeste 23 Este 0 934.7 0.1 76
2019-09-20 23:00:00 18.9 8 Sudeste 21 Este 0 934.8 0.9 73
2019-09-20 22:00:00 19.3 6 Sudeste 27 Este 0 935 0.8 69
2019-09-20 21:00:00 18.4 5 Norte 29 Sudeste 0.2 934.6 0.3 77
2019-09-20 20:00:00 19.6 17 Sur 49 Sur 3 933.9 -0.9 71
2019-09-20 19:00:00 24 20 Este 36 Este 0 934.2 -1.3 54
2019-09-20 18:00:00 24.8 12 Sudeste 36 Este 0 934.3 -1.6 48
2019-09-20 17:00:00 25 20 Este 37 Este 0 934.8 -1.5 51
2019-09-20 16:00:00 24.6 16 Sudeste 35 Este 0 935.5 -1.3 53
2019-09-20 15:00:00 24 19 Este 34 Este 0 935.9 -1.5 56
2019-09-20 14:00:00 22.9 18 Este 33 Sudeste 0 936.3 -1.3 62
2019-09-20 13:00:00 21.6 18 Sudeste 30 Sudeste 0 936.8 -0.5 67
2019-09-20 12:00:00 20 14 Este 29 Sudeste 0 937.4 0.5 74
2019-09-20 11:00:00 18.8 13 Sudeste 27 Sudeste 0 937.6 0.9 79
2019-09-20 10:00:00 17.5 12 Este 22 Este 0 937.3 0.9 85
2019-09-20 09:00:00 16.2 10 Este 24 Sudeste 0 936.9 0.6 88
2019-09-20 08:00:00 16.4 14 Sudeste 27 Sudeste 0 936.7 0.1 87
2019-09-20 07:00:00 16.8 13 Este 26 Sudeste 0 936.4 -0.3 86
2019-09-20 06:00:00 16.9 15 Sudeste 26 Sudeste 0 936.3 -0.5 85
2019-09-20 05:00:00 16.9 15 Sudeste 27 Sudeste 0 936.6 -0.3 84
2019-09-20 04:00:00 17.2 15 Sudeste 27 Sudeste 0 936.7 -0.2 82
2019-09-20 03:00:00 17.3 12 Este 23 Este 0 936.8 -0.2 79
2019-09-20 02:00:00 18 10 Este 21 Este 0 936.9 0 78
2019-09-20 01:00:00 19 11 Este 26 Este 0 936.9 0.3 74
2019-09-20 00:00:00 20.5 2 Sudeste 11 Sudeste 0 937 1 68
2019-09-19 23:00:00 22 5 Sudeste 12 Sudeste 0 936.9 1.2 60
2019-09-19 22:00:00 22.3 3 Sudeste 8 Sudeste 0 936.6 1.1 54
2019-09-19 21:00:00 24.2 4 Sudeste 9 Sudeste 0 936 0.1 46
2019-09-19 20:00:00 26.2 5 Sudeste 19 Sudeste 0 935.7 -0.4 34
2019-09-19 19:00:00 27.2 8 Sudeste 20 Este 0 935.5 -1.2 33
2019-09-19 18:00:00 26.9 10 Este 17 Sudeste 0 935.9 -1.3 34
2019-09-19 17:00:00 25 7 Norte 24 Norte 0.8 936.1 -1.5 53
2019-09-19 16:00:00 25.7 6 Nordeste 32 Este 0 936.7 -1.3 43
2019-09-19 15:00:00 26.9 4 Sudeste 17 Este 0 937.2 -1.1 40
2019-09-19 14:00:00 25.6 8 Este 26 Este 0 937.6 -0.6 46
2019-09-19 13:00:00 23.8 9 Este 25 Este 0 938 0.1 56
2019-09-19 12:00:00 22.1 8 Este 24 Este 0 938.3 0.8 64
2019-09-19 11:00:00 19.4 12 Sudeste 23 Sudeste 0 938.2 1 72
2019-09-19 10:00:00 17.6 7 Sudeste 18 Sur 0 937.9 0.9 80
2019-09-19 09:00:00 15.7 5 Sudeste 17 Este 0 937.5 0.4 85
2019-09-19 08:00:00 15.8 8 Este 19 Este 0 937.2 0 83
2019-09-19 07:00:00 16.1 7 Sudeste 18 Este 0 937 -0.5 81
2019-09-19 06:00:00 16.9 12 Este 25 Este 0 937.1 -0.4 78
2019-09-19 05:00:00 16.6 7 Este 18 Este 0 937.2 -0.4 80
2019-09-19 04:00:00 16.9 3 Este 22 Sudoeste 0 937.5 -0.2 80
2019-09-19 03:00:00 17.6 2 Sur 17 Este 0 937.5 -0.1 78
2019-09-19 02:00:00 18.2 5 Norte 23 Norte 0 937.6 0 74
2019-09-19 01:00:00 18.9 6 Sudoeste 18 Sudoeste 0 937.7 0.4 75
2019-09-19 00:00:00 20.1 3 Sur 7 Este 0 937.6 0.7 67
2019-09-18 23:00:00 20.8 5 Este 9 Nordeste 0 937.6 1 66
2019-09-18 22:00:00 22.1 4 Este 9 Nordeste 0 937.3 1 61
2019-09-18 21:00:00 23.8 5 Nordeste 8 Nordeste 0 936.9 0.4 49
2019-09-18 20:00:00 25.7 3 Este 11 Este 0 936.6 -0.2 40
2019-09-18 19:00:00 26 5 Nordeste 14 Este 0 936.3 -0.8 37
2019-09-18 18:00:00 26.3 4 Norte 14 Este 0 936.5 -1.1 35
2019-09-18 17:00:00 26.1 5 Nordeste 17 Este 0 936.8 -1.1 36
2019-09-18 16:00:00 25.7 9 Nordeste 14 Nordeste 0 937.1 -1 37
2019-09-18 15:00:00 25.4 5 Nordeste 13 Nordeste 0 937.6 -0.5 37
2019-09-18 14:00:00 24.8 4 Nordeste 23 Nordeste 0 937.9 -0.1 40
2019-09-18 13:00:00 23.7 4 Sudoeste 20 Sudoeste 0 938.1 0.3 43
2019-09-18 12:00:00 21.3 6 Sudoeste 19 Sudoeste 0 938.1 0.8 51
2019-09-18 11:00:00 18.9 4 Sudoeste 19 Oeste 0 938 1.2 68
2019-09-18 10:00:00 16 0 Calma 21 Norte 0 937.8 1.1 77
2019-09-18 09:00:00 13.3 3 Noroeste 19 Norte 0 937.3 1 87
2019-09-18 08:00:00 13 4 Oeste 15 Norte 0 936.8 0.3 86
2019-09-18 07:00:00 13.4 8 Noroeste 19 Oeste 0 936.7 0 85
2019-09-18 06:00:00 14.6 7 Sudeste 17 Sudeste 0 936.3 -1.1 80
2019-09-18 05:00:00 14.5 8 Este 16 Nordeste 0 936.5 -1.5 82
2019-09-18 04:00:00 14.9 4 Sudoeste 12 Sudoeste 0 936.7 -2 80
2019-09-18 03:00:00 15.1 7 Sudoeste 24 Oeste 0 937.4 -0.7 80
2019-09-18 02:00:00 16.1 18 Oeste 36 Noroeste 0 938 0.7 75
2019-09-18 01:00:00 16.3 14 Noroeste 26 Oeste 0 938.7 1.7 83
2019-09-18 00:00:00 16.5 6 Nordeste 23 Sur 0 938.1 1.7 81
2019-09-17 23:00:00 17.8 12 Sudeste 28 Sur 0 937.3 1.3 75
2019-09-17 22:00:00 19.5 6 Sur 25 Este 0 937 1.5 68
2019-09-17 21:00:00 21.2 8 Este 31 Nordeste 0 936.4 -0.2 50